sensor_id;sensor_type;location;lat;lon;timestamp;pressure;altitude;pressure_sealevel;temperature;humidity
21520;BME280;10921;53.614;9.882;2023-02-23T00:01:50;100958.09;;;9.46;91.62
21520;BME280;10921;53.614;9.882;2023-02-23T00:04:16;100967.09;;;9.55;91.72
21520;BME280;10921;53.614;9.882;2023-02-23T00:06:46;100970.03;;;9.52;91.81
21520;BME280;10921;53.614;9.882;2023-02-23T00:09:13;100973.91;;;9.48;92.10
21520;BME280;10921;53.614;9.882;2023-02-23T00:11:55;100954.63;;;9.35;92.28
21520;BME280;10921;53.614;9.882;2023-02-23T00:14:27;100955.47;;;9.35;92.85
21520;BME280;10921;53.614;9.882;2023-02-23T00:16:54;100966.97;;;9.36;92.33
21520;BME280;10921;53.614;9.882;2023-02-23T00:19:22;100968.06;;;9.33;92.52
21520;BME280;10921;53.614;9.882;2023-02-23T00:21:50;100958.81;;;9.28;92.41
21520;BME280;10921;53.614;9.882;2023-02-23T00:24:17;100948.66;;;9.22;92.63
21520;BME280;10921;53.614;9.882;2023-02-23T00:26:45;100961.13;;;9.21;92.50
21520;BME280;10921;53.614;9.882;2023-02-23T00:29:15;100939.44;;;9.05;92.97
21520;BME280;10921;53.614;9.882;2023-02-23T00:31:43;100960.53;;;9.17;92.44
21520;BME280;10921;53.614;9.882;2023-02-23T00:34:13;100942.22;;;9.03;92.93
21520;BME280;10921;53.614;9.882;2023-02-23T00:36:39;100950.81;;;9.07;93.63
21520;BME280;10921;53.614;9.882;2023-02-23T00:39:10;100967.63;;;9.07;93.77
21520;BME280;10921;53.614;9.882;2023-02-23T00:41:52;100950.75;;;8.97;93.55
21520;BME280;10921;53.614;9.882;2023-02-23T00:44:20;100964.38;;;9.04;93.90
21520;BME280;10921;53.614;9.882;2023-02-23T00:46:47;100941.56;;;8.90;93.92
21520;BME280;10921;53.614;9.882;2023-02-23T00:49:18;100970.16;;;9.09;94.25
21520;BME280;10921;53.614;9.882;2023-02-23T00:51:45;100965.34;;;9.03;94.03
21520;BME280;10921;53.614;9.882;2023-02-23T00:54:13;100939.03;;;8.89;94.47
21520;BME280;10921;53.614;9.882;2023-02-23T00:56:40;100964.66;;;9.01;94.85
21520;BME280;10921;53.614;9.882;2023-02-23T00:59:06;100920.72;;;8.74;94.63
21520;BME280;10921;53.614;9.882;2023-02-23T01:01:33;100959.56;;;8.98;95.03
21520;BME280;10921;53.614;9.882;2023-02-23T01:04:00;100963.81;;;9.00;94.65
21520;BME280;10921;53.614;9.882;2023-02-23T01:06:27;100974.28;;;9.02;94.92
21520;BME280;10921;53.614;9.882;2023-02-23T01:08:54;100959.16;;;9.02;94.97
21520;BME280;10921;53.614;9.882;2023-02-23T01:11:26;100922.03;;;8.80;95.43
21520;BME280;10921;53.614;9.882;2023-02-23T01:13:59;100948.47;;;8.93;95.73
21520;BME280;10921;53.614;9.882;2023-02-23T01:16:29;100967.75;;;9.06;95.84
21520;BME280;10921;53.614;9.882;2023-02-23T01:18:58;100963.53;;;9.03;95.54
21520;BME280;10921;53.614;9.882;2023-02-23T01:21:31;100971.84;;;9.10;95.64
21520;BME280;10921;53.614;9.882;2023-02-23T01:23:59;100970.16;;;9.09;95.20
21520;BME280;10921;53.614;9.882;2023-02-23T01:26:31;100972.69;;;9.10;95.43
21520;BME280;10921;53.614;9.882;2023-02-23T01:29:09;100961.19;;;9.10;95.32
21520;BME280;10921;53.614;9.882;2023-02-23T01:31:40;100960.38;;;9.09;95.24
21520;BME280;10921;53.614;9.882;2023-02-23T01:34:10;100917.19;;;8.85;95.22
21520;BME280;10921;53.614;9.882;2023-02-23T01:36:40;100935.88;;;8.95;95.32
21520;BME280;10921;53.614;9.882;2023-02-23T01:39:08;100956.06;;;9.18;95.89
21520;BME280;10921;53.614;9.882;2023-02-23T01:41:37;100958.53;;;9.10;94.69
21520;BME280;10921;53.614;9.882;2023-02-23T01:44:07;100953.47;;;9.07;95.24
21520;BME280;10921;53.614;9.882;2023-02-23T01:46:36;100964.13;;;9.07;95.60
21520;BME280;10921;53.614;9.882;2023-02-23T01:49:07;100958.66;;;9.08;95.41
21520;BME280;10921;53.614;9.882;2023-02-23T01:51:39;100958.53;;;9.10;95.51
21520;BME280;10921;53.614;9.882;2023-02-23T01:54:10;100954.19;;;9.09;95.46
21520;BME280;10921;53.614;9.882;2023-02-23T01:56:44;100939.25;;;8.97;94.92
21520;BME280;10921;53.614;9.882;2023-02-23T01:59:15;100889.72;;;8.64;95.33
21520;BME280;10921;53.614;9.882;2023-02-23T02:01:43;100960.88;;;9.03;94.85
21520;BME280;10921;53.614;9.882;2023-02-23T02:04:11;100951.91;;;9.04;95.66
21520;BME280;10921;53.614;9.882;2023-02-23T02:06:44;100942.75;;;8.97;95.71
21520;BME280;10921;53.614;9.882;2023-02-23T02:09:14;100949.84;;;9.08;95.65
21520;BME280;10921;53.614;9.882;2023-02-23T02:11:45;100936.47;;;8.98;95.65
21520;BME280;10921;53.614;9.882;2023-02-23T02:14:23;100937.75;;;9.04;95.50
21520;BME280;10921;53.614;9.882;2023-02-23T02:27:40;100950.94;;;9.05;96.08
21520;BME280;10921;53.614;9.882;2023-02-23T02:32:55;100953.47;;;9.07;96.23
21520;BME280;10921;53.614;9.882;2023-02-23T02:41:18;100917.88;;;8.87;96.19
21520;BME280;10921;53.614;9.882;2023-02-23T02:43:57;100962.66;;;9.14;96.59
21520;BME280;10921;53.614;9.882;2023-02-23T02:46:29;100939.91;;;9.10;95.72
21520;BME280;10921;53.614;9.882;2023-02-23T02:49:05;100957.88;;;9.17;95.99
21520;BME280;10921;53.614;9.882;2023-02-23T02:51:40;100951.88;;;9.15;95.65
21520;BME280;10921;53.614;9.882;2023-02-23T02:54:24;100946.38;;;9.17;96.20
21520;BME280;10921;53.614;9.882;2023-02-23T02:56:55;100893.50;;;8.82;94.90
21520;BME280;10921;53.614;9.882;2023-02-23T02:59:26;100949.59;;;9.11;94.60
21520;BME280;10921;53.614;9.882;2023-02-23T03:02:16;100947.91;;;9.10;95.00
21520;BME280;10921;53.614;9.882;2023-02-23T03:05:02;100945.22;;;9.10;94.11
21520;BME280;10921;53.614;9.882;2023-02-23T03:11:12;100938.16;;;8.99;94.13
21520;BME280;10921;53.614;9.882;2023-02-23T03:14:14;100947.69;;;9.02;95.48
21520;BME280;10921;53.614;9.882;2023-02-23T03:17:23;100957.63;;;9.00;95.57
21520;BME280;10921;53.614;9.882;2023-02-23T03:29:39;100939.50;;;8.94;94.31
21520;BME280;10921;53.614;9.882;2023-02-23T03:32:34;100938.78;;;8.92;94.89
21520;BME280;10921;53.614;9.882;2023-02-23T03:35:27;100906.13;;;8.69;94.44
21520;BME280;10921;53.614;9.882;2023-02-23T03:38:50;100940.84;;;8.88;95.32
21520;BME280;10921;53.614;9.882;2023-02-23T03:41:34;100941.13;;;8.85;94.05
21520;BME280;10921;53.614;9.882;2023-02-23T03:44:26;100937.63;;;8.85;94.29
21520;BME280;10921;53.614;9.882;2023-02-23T03:47:14;100945.63;;;8.85;94.44
21520;BME280;10921;53.614;9.882;2023-02-23T03:50:03;100939.31;;;8.86;94.85
21520;BME280;10921;53.614;9.882;2023-02-23T03:52:58;100934.25;;;8.82;95.14
21520;BME280;10921;53.614;9.882;2023-02-23T03:55:48;100948.97;;;8.87;94.61
21520;BME280;10921;53.614;9.882;2023-02-23T03:58:41;100944.66;;;8.86;94.47
21520;BME280;10921;53.614;9.882;2023-02-23T04:01:29;100895.66;;;8.56;94.39
21520;BME280;10921;53.614;9.882;2023-02-23T04:04:16;100953.97;;;8.80;94.82
21520;BME280;10921;53.614;9.882;2023-02-23T04:07:03;100939.44;;;8.84;94.87
21520;BME280;10921;53.614;9.882;2023-02-23T04:09:51;100947.03;;;8.89;94.82
21520;BME280;10921;53.614;9.882;2023-02-23T04:18:15;100943.41;;;8.90;94.73
21520;BME280;10921;53.614;9.882;2023-02-23T04:20:42;100946.66;;;8.93;94.88
21520;BME280;10921;53.614;9.882;2023-02-23T04:23:09;100944.00;;;8.93;94.88
21520;BME280;10921;53.614;9.882;2023-02-23T04:25:35;100955.47;;;8.94;94.80
21520;BME280;10921;53.614;9.882;2023-02-23T04:28:02;100958.84;;;8.96;94.95
21520;BME280;10921;53.614;9.882;2023-02-23T04:30:28;100956.06;;;8.97;94.96
21520;BME280;10921;53.614;9.882;2023-02-23T04:32:55;100953.41;;;8.97;95.02
21520;BME280;10921;53.614;9.882;2023-02-23T04:35:22;100955.34;;;8.95;94.68
21520;BME280;10921;53.614;9.882;2023-02-23T04:37:49;100931.06;;;8.89;94.69
21520;BME280;10921;53.614;9.882;2023-02-23T04:40:15;100954.00;;;9.01;94.91
21520;BME280;10921;53.614;9.882;2023-02-23T04:42:42;100952.44;;;8.98;95.06
21520;BME280;10921;53.614;9.882;2023-02-23T04:45:09;100951.34;;;9.01;94.79
21520;BME280;10921;53.614;9.882;2023-02-23T04:47:36;100954.13;;;8.99;94.77
21520;BME280;10921;53.614;9.882;2023-02-23T04:50:03;100964.78;;;8.99;94.89
21520;BME280;10921;53.614;9.882;2023-02-23T04:52:29;100948.81;;;8.99;94.62
21520;BME280;10921;53.614;9.882;2023-02-23T04:54:56;100940.72;;;8.90;94.65
21520;BME280;10921;53.614;9.882;2023-02-23T04:57:23;100930.88;;;8.80;94.50
21520;BME280;10921;53.614;9.882;2023-02-23T04:59:49;100929.50;;;8.86;94.67
21520;BME280;10921;53.614;9.882;2023-02-23T05:02:15;100957.63;;;9.00;94.54
21520;BME280;10921;53.614;9.882;2023-02-23T05:04:42;100954.69;;;9.03;94.79
21520;BME280;10921;53.614;9.882;2023-02-23T05:07:09;100945.31;;;8.99;94.80
21520;BME280;10921;53.614;9.882;2023-02-23T05:09:35;100946.47;;;9.06;94.74
21520;BME280;10921;53.614;9.882;2023-02-23T05:12:02;100918.47;;;8.91;94.78
21520;BME280;10921;53.614;9.882;2023-02-23T05:14:29;100954.06;;;9.10;95.10
21520;BME280;10921;53.614;9.882;2023-02-23T05:16:55;100912.44;;;8.89;95.23
21520;BME280;10921;53.614;9.882;2023-02-23T05:19:21;100945.22;;;9.10;94.62
21520;BME280;10921;53.614;9.882;2023-02-23T05:21:48;100918.22;;;8.94;94.79
21520;BME280;10921;53.614;9.882;2023-02-23T05:24:16;100938.47;;;9.06;94.50
21520;BME280;10921;53.614;9.882;2023-02-23T05:26:44;100954.72;;;9.24;94.73
21520;BME280;10921;53.614;9.882;2023-02-23T05:29:11;100950.94;;;9.26;94.82
21520;BME280;10921;53.614;9.882;2023-02-23T05:31:37;100960.50;;;9.29;94.65
21520;BME280;10921;53.614;9.882;2023-02-23T05:34:04;100927.31;;;9.12;94.74
21520;BME280;10921;53.614;9.882;2023-02-23T05:36:30;100957.41;;;9.33;94.74
21520;BME280;10921;53.614;9.882;2023-02-23T05:38:57;100944.41;;;9.30;94.74
21520;BME280;10921;53.614;9.882;2023-02-23T05:41:23;100958.28;;;9.34;94.77
21520;BME280;10921;53.614;9.882;2023-02-23T05:43:50;100946.38;;;9.38;94.96
21520;BME280;10921;53.614;9.882;2023-02-23T05:46:20;100948.66;;;9.42;95.25
21520;BME280;10921;53.614;9.882;2023-02-23T05:48:47;100916.00;;;9.20;95.00
21520;BME280;10921;53.614;9.882;2023-02-23T05:51:15;100937.81;;;9.34;94.95
21520;BME280;10921;53.614;9.882;2023-02-23T05:53:43;100952.47;;;9.49;95.20
21520;BME280;10921;53.614;9.882;2023-02-23T05:56:12;100928.00;;;9.35;95.04
21520;BME280;10921;53.614;9.882;2023-02-23T05:58:55;100943.94;;;9.46;95.17
21520;BME280;10921;53.614;9.882;2023-02-23T06:01:24;100960.78;;;9.56;95.18
21520;BME280;10921;53.614;9.882;2023-02-23T06:03:51;100957.16;;;9.57;94.92
21520;BME280;10921;53.614;9.882;2023-02-23T06:06:17;100959.09;;;9.55;95.18
21520;BME280;10921;53.614;9.882;2023-02-23T06:08:44;100953.91;;;9.53;94.89
21520;BME280;10921;53.614;9.882;2023-02-23T06:11:11;100969.38;;;9.60;95.12
21520;BME280;10921;53.614;9.882;2023-02-23T06:13:40;100955.59;;;9.55;95.19
21520;BME280;10921;53.614;9.882;2023-02-23T06:16:10;100976.09;;;9.64;94.92
21520;BME280;10921;53.614;9.882;2023-02-23T06:18:36;100944.78;;;9.46;95.01
21520;BME280;10921;53.614;9.882;2023-02-23T06:21:04;100983.13;;;9.65;95.03
21520;BME280;10921;53.614;9.882;2023-02-23T06:23:32;100977.94;;;9.63;94.99
21520;BME280;10921;53.614;9.882;2023-02-23T06:25:58;100983.84;;;9.67;95.11
21520;BME280;10921;53.614;9.882;2023-02-23T06:28:26;100983.84;;;9.67;94.89
21520;BME280;10921;53.614;9.882;2023-02-23T06:30:53;100982.16;;;9.66;95.21
21520;BME280;10921;53.614;9.882;2023-02-23T06:33:21;100980.91;;;9.70;95.35
21520;BME280;10921;53.614;9.882;2023-02-23T06:35:48;101000.28;;;9.72;95.39
21520;BME280;10921;53.614;9.882;2023-02-23T06:38:14;100993.97;;;9.73;95.39
21520;BME280;10921;53.614;9.882;2023-02-23T06:40:41;101001.72;;;9.76;95.34
21520;BME280;10921;53.614;9.882;2023-02-23T06:43:08;100998.94;;;9.77;95.22
21520;BME280;10921;53.614;9.882;2023-02-23T06:45:35;100996.94;;;9.79;95.14
21520;BME280;10921;53.614;9.882;2023-02-23T06:48:01;100952.22;;;9.52;95.43
21520;BME280;10921;53.614;9.882;2023-02-23T06:50:27;101003.69;;;9.83;95.20
21520;BME280;10921;53.614;9.882;2023-02-23T06:52:54;100993.59;;;9.77;95.03
21520;BME280;10921;53.614;9.882;2023-02-23T06:55:23;101000.06;;;9.84;95.07
21520;BME280;10921;53.614;9.882;2023-02-23T06:57:50;101008.66;;;9.88;95.04
21520;BME280;10921;53.614;9.882;2023-02-23T07:00:19;101012.88;;;9.91;95.11
21520;BME280;10921;53.614;9.882;2023-02-23T07:02:46;101007.81;;;9.87;95.02
21520;BME280;10921;53.614;9.882;2023-02-23T07:05:12;101014.69;;;9.90;94.75
21520;BME280;10921;53.614;9.882;2023-02-23T07:07:39;101009.63;;;9.87;94.91
21520;BME280;10921;53.614;9.882;2023-02-23T07:10:06;101026.75;;;9.94;94.89
21520;BME280;10921;53.614;9.882;2023-02-23T07:12:32;101012.16;;;9.88;94.79
21520;BME280;10921;53.614;9.882;2023-02-23T07:14:59;101019.72;;;9.93;94.85
21520;BME280;10921;53.614;9.882;2023-02-23T07:17:25;101009.75;;;9.85;94.62
21520;BME280;10921;53.614;9.882;2023-02-23T07:19:52;100988.25;;;9.77;94.72
21520;BME280;10921;53.614;9.882;2023-02-23T07:22:19;101025.38;;;10.00;94.85
21520;BME280;10921;53.614;9.882;2023-02-23T07:24:45;100998.63;;;9.80;95.02
21520;BME280;10921;53.614;9.882;2023-02-23T07:27:12;101021.28;;;9.96;94.92
21520;BME280;10921;53.614;9.882;2023-02-23T07:29:38;101023.25;;;9.94;94.84
21520;BME280;10921;53.614;9.882;2023-02-23T07:32:06;101026.63;;;9.96;94.96
21520;BME280;10921;53.614;9.882;2023-02-23T07:34:32;101029.16;;;9.97;95.07
21520;BME280;10921;53.614;9.882;2023-02-23T07:36:59;101026.63;;;9.96;94.92
21520;BME280;10921;53.614;9.882;2023-02-23T07:39:25;101021.59;;;9.93;94.79
21520;BME280;10921;53.614;9.882;2023-02-23T07:41:52;101039.88;;;10.07;94.94
21520;BME280;10921;53.614;9.882;2023-02-23T07:44:19;101002.84;;;9.83;94.65
21520;BME280;10921;53.614;9.882;2023-02-23T07:46:45;100995.25;;;9.78;94.77
21520;BME280;10921;53.614;9.882;2023-02-23T07:49:12;101046.91;;;10.08;94.93
21520;BME280;10921;53.614;9.882;2023-02-23T07:51:39;101018.91;;;9.93;94.86
21520;BME280;10921;53.614;9.882;2023-02-23T07:54:06;101016.78;;;9.86;94.65
21520;BME280;10921;53.614;9.882;2023-02-23T07:56:33;101054.91;;;10.08;94.68
21520;BME280;10921;53.614;9.882;2023-02-23T07:59:01;101061.06;;;10.08;94.76
21520;BME280;10921;53.614;9.882;2023-02-23T08:01:28;101055.72;;;10.08;94.62
21520;BME280;10921;53.614;9.882;2023-02-23T08:03:54;101047.81;;;9.97;94.53
21520;BME280;10921;53.614;9.882;2023-02-23T08:06:21;101068.38;;;10.06;94.55
21520;BME280;10921;53.614;9.882;2023-02-23T08:08:47;101051.47;;;9.96;94.81
21520;BME280;10921;53.614;9.882;2023-02-23T08:11:14;101013.34;;;9.75;94.37
21520;BME280;10921;53.614;9.882;2023-02-23T08:13:41;101029.78;;;9.80;94.79
21520;BME280;10921;53.614;9.882;2023-02-23T08:16:07;101067.66;;;10.04;94.66
21520;BME280;10921;53.614;9.882;2023-02-23T08:18:34;101072.00;;;10.05;94.58
21520;BME280;10921;53.614;9.882;2023-02-23T08:21:02;101071.88;;;10.07;94.78
21520;BME280;10921;53.614;9.882;2023-02-23T08:23:30;101067.66;;;10.04;94.49
21520;BME280;10921;53.614;9.882;2023-02-23T08:25:57;101070.00;;;9.98;94.37
21520;BME280;10921;53.614;9.882;2023-02-23T08:28:26;101076.63;;;10.03;94.51
21520;BME280;10921;53.614;9.882;2023-02-23T08:30:52;101071.44;;;10.02;94.75
21520;BME280;10921;53.614;9.882;2023-02-23T08:33:20;101071.56;;;10.00;94.85
21520;BME280;10921;53.614;9.882;2023-02-23T08:35:47;101081.25;;;10.01;94.83
21520;BME280;10921;53.614;9.882;2023-02-23T08:38:13;101080.53;;;9.99;95.04
21520;BME280;10921;53.614;9.882;2023-02-23T08:40:41;101084.75;;;10.02;95.04
21520;BME280;10921;53.614;9.882;2023-02-23T08:43:08;101081.50;;;9.98;94.96
21520;BME280;10921;53.614;9.882;2023-02-23T08:45:36;101067.47;;;9.96;95.05
21520;BME280;10921;53.614;9.882;2023-02-23T08:48:05;101066.59;;;9.96;94.66
21520;BME280;10921;53.614;9.882;2023-02-23T08:50:31;101087.28;;;10.03;94.61
21520;BME280;10921;53.614;9.882;2023-02-23T08:52:58;101069.94;;;9.88;94.54
21520;BME280;10921;53.614;9.882;2023-02-23T08:55:24;101082.09;;;10.02;94.53
21520;BME280;10921;53.614;9.882;2023-02-23T08:57:51;101034.53;;;9.76;94.64
21520;BME280;10921;53.614;9.882;2023-02-23T09:00:17;101087.28;;;10.03;94.44
21520;BME280;10921;53.614;9.882;2023-02-23T09:02:45;101073.97;;;10.03;94.39
21520;BME280;10921;53.614;9.882;2023-02-23T09:05:14;101086.31;;;10.04;94.26
21520;BME280;10921;53.614;9.882;2023-02-23T09:07:41;101082.22;;;10.00;93.87
21520;BME280;10921;53.614;9.882;2023-02-23T09:10:15;101082.22;;;10.00;94.24
21520;BME280;10921;53.614;9.882;2023-02-23T09:12:41;101050.25;;;9.79;93.44
21520;BME280;10921;53.614;9.882;2023-02-23T09:15:08;101085.69;;;9.91;93.33
21520;BME280;10921;53.614;9.882;2023-02-23T09:17:35;101084.25;;;9.87;93.54
21520;BME280;10921;53.614;9.882;2023-02-23T09:20:03;101061.22;;;9.65;93.47
21520;BME280;10921;53.614;9.882;2023-02-23T09:22:30;101070.72;;;9.79;93.54
21520;BME280;10921;53.614;9.882;2023-02-23T09:24:57;101086.44;;;9.82;93.61
21520;BME280;10921;53.614;9.882;2023-02-23T09:27:23;101090.34;;;9.78;93.55
21520;BME280;10921;53.614;9.882;2023-02-23T09:29:50;101093.16;;;9.76;93.74
21520;BME280;10921;53.614;9.882;2023-02-23T09:32:18;101093.41;;;9.73;93.50
21520;BME280;10921;53.614;9.882;2023-02-23T09:34:45;101099.84;;;9.71;93.39
21520;BME280;10921;53.614;9.882;2023-02-23T09:37:14;101099.00;;;9.70;93.52
21520;BME280;10921;53.614;9.882;2023-02-23T09:39:41;101083.53;;;9.64;93.68
21520;BME280;10921;53.614;9.882;2023-02-23T09:42:22;101094.31;;;9.63;94.54
21520;BME280;10921;53.614;9.882;2023-02-23T09:45:06;101088.97;;;9.63;94.93
21520;BME280;10921;53.614;9.882;2023-02-23T09:50:30;101103.50;;;9.70;94.27
21520;BME280;10921;53.614;9.882;2023-02-23T09:55:40;101104.81;;;9.75;94.26
21520;BME280;10921;53.614;9.882;2023-02-23T09:58:18;101064.94;;;9.53;95.42
21520;BME280;10921;53.614;9.882;2023-02-23T10:00:55;101090.75;;;9.73;94.65
21520;BME280;10921;53.614;9.882;2023-02-23T10:03:33;101077.94;;;9.67;94.70
21520;BME280;10921;53.614;9.882;2023-02-23T10:06:05;101063.84;;;9.56;93.85
21520;BME280;10921;53.614;9.882;2023-02-23T10:09:05;101111.63;;;9.89;94.51
21520;BME280;10921;53.614;9.882;2023-02-23T10:11:41;101113.56;;;9.87;93.09
21520;BME280;10921;53.614;9.882;2023-02-23T10:14:31;101111.75;;;9.87;93.51
21520;BME280;10921;53.614;9.882;2023-02-23T10:17:12;101115.53;;;9.85;92.93
21520;BME280;10921;53.614;9.882;2023-02-23T10:19:51;101115.78;;;9.82;92.62
21520;BME280;10921;53.614;9.882;2023-02-23T10:22:19;101088.53;;;9.58;92.12
21520;BME280;10921;53.614;9.882;2023-02-23T10:24:51;101093.94;;;9.67;92.21
21520;BME280;10921;53.614;9.882;2023-02-23T10:27:25;101123.34;;;9.77;91.98
21520;BME280;10921;53.614;9.882;2023-02-23T10:29:55;101117.16;;;9.76;91.90
21520;BME280;10921;53.614;9.882;2023-02-23T10:35:14;101124.31;;;9.76;91.14
21520;BME280;10921;53.614;9.882;2023-02-23T10:37:40;101121.91;;;9.73;90.48
21520;BME280;10921;53.614;9.882;2023-02-23T10:40:13;101094.00;;;9.56;90.87
21520;BME280;10921;53.614;9.882;2023-02-23T10:42:41;101132.44;;;9.63;90.05
21520;BME280;10921;53.614;9.882;2023-02-23T10:45:12;101125.13;;;9.56;89.97
21520;BME280;10921;53.614;9.882;2023-02-23T10:47:44;101133.84;;;9.58;89.68
21520;BME280;10921;53.614;9.882;2023-02-23T10:50:12;101132.38;;;9.53;88.70
21520;BME280;10921;53.614;9.882;2023-02-23T10:52:42;101139.78;;;9.50;88.47
21520;BME280;10921;53.614;9.882;2023-02-23T10:55:27;101137.00;;;9.51;89.56
21520;BME280;10921;53.614;9.882;2023-02-23T11:00:39;101127.91;;;9.54;89.17
21520;BME280;10921;53.614;9.882;2023-02-23T11:03:17;101135.41;;;9.60;89.62
21520;BME280;10921;53.614;9.882;2023-02-23T11:05:46;101125.91;;;9.67;89.59
21520;BME280;10921;53.614;9.882;2023-02-23T11:10:59;101125.22;;;9.86;88.81
21520;BME280;10921;53.614;9.882;2023-02-23T11:16:07;101124.06;;;10.09;88.53
21520;BME280;10921;53.614;9.882;2023-02-23T11:18:36;101118.72;;;10.20;88.06
21520;BME280;10921;53.614;9.882;2023-02-23T11:21:09;101076.06;;;10.09;86.91
21520;BME280;10921;53.614;9.882;2023-02-23T11:23:38;101105.63;;;10.38;85.61
21520;BME280;10921;53.614;9.882;2023-02-23T11:26:19;101114.63;;;10.47;85.79
21520;BME280;10921;53.614;9.882;2023-02-23T11:28:54;101069.31;;;10.26;84.76
21520;BME280;10921;53.614;9.882;2023-02-23T11:31:27;101108.59;;;10.54;83.60
21520;BME280;10921;53.614;9.882;2023-02-23T11:33:56;101114.53;;;10.58;81.67
21520;BME280;10921;53.614;9.882;2023-02-23T11:41:36;101099.56;;;10.76;81.85
21520;BME280;10921;53.614;9.882;2023-02-23T11:44:03;101111.22;;;10.85;80.96
21520;BME280;10921;53.614;9.882;2023-02-23T11:46:35;101105.78;;;10.96;80.38
21520;BME280;10921;53.614;9.882;2023-02-23T11:49:06;101111.53;;;11.01;78.17
21520;BME280;10921;53.614;9.882;2023-02-23T11:51:37;101109.19;;;11.08;78.63
21520;BME280;10921;53.614;9.882;2023-02-23T11:54:06;101106.94;;;11.13;78.01
21520;BME280;10921;53.614;9.882;2023-02-23T11:56:35;101100.44;;;11.15;77.80
21520;BME280;10921;53.614;9.882;2023-02-23T11:59:07;101101.16;;;11.17;78.04
21520;BME280;10921;53.614;9.882;2023-02-23T12:01:46;101050.97;;;10.92;77.36
21520;BME280;10921;53.614;9.882;2023-02-23T12:04:37;101086.28;;;11.15;77.48
21520;BME280;10921;53.614;9.882;2023-02-23T12:07:37;101101.88;;;11.19;77.09
21520;BME280;10921;53.614;9.882;2023-02-23T12:10:23;101089.22;;;11.12;76.77
21520;BME280;10921;53.614;9.882;2023-02-23T12:13:01;101099.66;;;11.15;77.21
21520;BME280;10921;53.614;9.882;2023-02-23T12:21:13;101095.41;;;11.12;76.63
21520;BME280;10921;53.614;9.882;2023-02-23T12:23:41;101085.81;;;11.00;75.96
21520;BME280;10921;53.614;9.882;2023-02-23T12:26:17;101099.19;;;11.10;75.75
21520;BME280;10921;53.614;9.882;2023-02-23T12:28:52;101060.66;;;10.83;75.94
21520;BME280;10921;53.614;9.882;2023-02-23T12:31:41;101099.34;;;11.08;76.80
21520;BME280;10921;53.614;9.882;2023-02-23T12:35:05;101056.44;;;10.81;76.86
21520;BME280;10921;53.614;9.882;2023-02-23T12:37:26;101098.75;;;11.05;76.43
21520;BME280;10921;53.614;9.882;2023-02-23T12:40:21;101079.81;;;10.98;76.71
21520;BME280;10921;53.614;9.882;2023-02-23T12:43:19;101098.63;;;11.06;76.76
21520;BME280;10921;53.614;9.882;2023-02-23T12:45:55;101096.50;;;11.00;76.49
21520;BME280;10921;53.614;9.882;2023-02-23T12:51:41;101090.75;;;11.05;76.93
21520;BME280;10921;53.614;9.882;2023-02-23T12:54:11;101100.72;;;11.03;76.24
21520;BME280;10921;53.614;9.882;2023-02-23T13:02:40;101096.94;;;10.96;77.02
21520;BME280;10921;53.614;9.882;2023-02-23T13:05:27;101098.50;;;10.98;76.44
21520;BME280;10921;53.614;9.882;2023-02-23T13:08:05;101088.22;;;11.03;77.36
21520;BME280;10921;53.614;9.882;2023-02-23T13:13:54;101087.28;;;11.14;77.15
21520;BME280;10921;53.614;9.882;2023-02-23T13:16:31;101078.53;;;11.12;76.80
21520;BME280;10921;53.614;9.882;2023-02-23T13:19:24;101083.19;;;11.19;76.87
21520;BME280;10921;53.614;9.882;2023-02-23T13:24:29;101074.59;;;11.16;76.20
21520;BME280;10921;53.614;9.882;2023-02-23T13:27:15;101073.63;;;11.17;76.84
21520;BME280;10921;53.614;9.882;2023-02-23T13:29:47;101076.84;;;11.20;76.27
21520;BME280;10921;53.614;9.882;2023-02-23T13:32:20;101031.88;;;10.97;76.14
21520;BME280;10921;53.614;9.882;2023-02-23T13:35:02;101077.00;;;11.28;76.98
21520;BME280;10921;53.614;9.882;2023-02-23T13:37:40;101077.69;;;11.31;76.92
21520;BME280;10921;53.614;9.882;2023-02-23T13:43:01;101068.44;;;11.25;76.00
21520;BME280;10921;53.614;9.882;2023-02-23T13:48:37;101074.59;;;11.35;76.45
21520;BME280;10921;53.614;9.882;2023-02-23T13:51:35;101074.47;;;11.37;76.44
21520;BME280;10921;53.614;9.882;2023-02-23T13:56:50;101080.38;;;11.40;76.35
21520;BME280;10921;53.614;9.882;2023-02-23T13:59:20;101070.69;;;11.39;75.58
21520;BME280;10921;53.614;9.882;2023-02-23T14:01:52;101065.06;;;11.42;75.74
21520;BME280;10921;53.614;9.882;2023-02-23T14:04:35;101077.28;;;11.45;75.51
21520;BME280;10921;53.614;9.882;2023-02-23T14:09:37;101081.50;;;11.38;75.63
21520;BME280;10921;53.614;9.882;2023-02-23T14:22:33;101079.66;;;11.19;75.78
21520;BME280;10921;53.614;9.882;2023-02-23T14:28:02;101040.03;;;10.95;75.93
21520;BME280;10921;53.614;9.882;2023-02-23T14:30:46;101009.25;;;10.81;76.56
21520;BME280;10921;53.614;9.882;2023-02-23T14:33:59;101071.25;;;11.23;76.60
21520;BME280;10921;53.614;9.882;2023-02-23T14:41:54;101071.94;;;11.25;75.90
21520;BME280;10921;53.614;9.882;2023-02-23T14:44:27;101064.75;;;11.16;75.81
21520;BME280;10921;53.614;9.882;2023-02-23T14:47:13;101064.63;;;11.18;75.41
21520;BME280;10921;53.614;9.882;2023-02-23T14:54:51;101075.47;;;11.26;74.68
21520;BME280;10921;53.614;9.882;2023-02-23T14:57:23;101077.16;;;11.27;75.03
21520;BME280;10921;53.614;9.882;2023-02-23T14:59:55;101080.09;;;11.24;75.19
21520;BME280;10921;53.614;9.882;2023-02-23T15:02:24;101084.72;;;11.22;74.78
21520;BME280;10921;53.614;9.882;2023-02-23T15:04:51;101076.84;;;11.11;75.19
21520;BME280;10921;53.614;9.882;2023-02-23T15:07:31;101074.59;;;11.16;75.42
21520;BME280;10921;53.614;9.882;2023-02-23T15:10:05;101071.50;;;11.11;75.69
21520;BME280;10921;53.614;9.882;2023-02-23T15:12:35;101050.00;;;10.93;75.81
21520;BME280;10921;53.614;9.882;2023-02-23T15:15:06;101079.53;;;11.11;75.94
21520;BME280;10921;53.614;9.882;2023-02-23T15:17:41;101080.50;;;11.10;76.49
21520;BME280;10921;53.614;9.882;2023-02-23T15:20:17;101046.75;;;10.89;76.87